Aviosuperficie Cumiana

IT-0051 · 皮埃蒙特, 意大利

METAR的历史 IT-0051 · Aviosuperficie Cumiana

下面你可以看到过去几天的METARs。 选择年份以浏览从2007年开始的旧METAR。

2024年4月23日

时间 代码 天气 温度 能见度 天花板 METAR/SPECI
08:55
V
6 °C 10 km+ - 220° 220° 4 kt METAR LIMA 230655Z 22004KT 9999 SCT005 06/04 Q1009

2024年4月22日

时间 代码 天气 温度 能见度 天花板 METAR/SPECI
17:50
I
7 °C 10 km+ 500 ft Var Var 2 kt METAR LIMA 221550Z VRB02KT 9999 -RA OVC005 07/04 Q1012
16:50
I
6 °C 10 km+ 500 ft 100° 100° 3 kt METAR LIMA 221450Z 10003KT 060V140 9999 -RA OVC005 06/04 Q1012
15:50
I
6 °C 10 km+ 500 ft Var Var 2 kt METAR LIMA 221350Z VRB02KT 9999 -RA OVC005 06/04 Q1013
14:50
I
6 °C 10 km+ 500 ft Var Var 2 kt METAR LIMA 221250Z VRB02KT 9999 -RA OVC005 06/04 Q1013
13:50
I
6 °C 10 km+ 500 ft Var Var 2 kt METAR LIMA 221150Z VRB02KT 9999 -RA OVC005 06/04 Q1013
12:50
I
5 °C 10 km+ 500 ft 050° 050° 4 kt METAR LIMA 221050Z 05004KT 340V100 9999 -RA OVC005 05/03 Q1014
11:50
I
5 °C 10 km+ 500 ft Var Var 3 kt METAR LIMA 220950Z VRB03KT 9999 -RA OVC005 05/03 Q1014
10:50
I
5 °C 10 km+ 500 ft 070° 070° 4 kt METAR LIMA 220850Z 07004KT 020V110 9999 -RA OVC005 05/03 Q1013
09:50
I
5 °C 10 km+ 700 ft 060° 060° 3 kt METAR LIMA 220750Z 06003KT 360V110 9999 -RA BKN007 OVC013 05/02 Q1013
08:50
I
5 °C 10 km+ 900 ft Var Var 2 kt METAR LIMA 220650Z VRB02KT 9999 -RA BKN009 OVC013 05/02 Q1013

2024年4月21日

时间 代码 天气 温度 能见度 天花板 METAR/SPECI
17:50
V
14 °C 10 km+ 4.000 ft 030° 030° 7 kt METAR LIMA 211550Z 03007KT 300V090 9999 BKN040 14/M02 Q1009
16:50
V
17 °C 10 km+ 3.500 ft 030° 030° 7 kt METAR LIMA 211450Z 03007KT 330V100 9999 FEW030TCU BKN035 17/M04 Q1009
15:50
V
16 °C 10 km+ - 070° 070° 4 kt METAR LIMA 211350Z 07004KT 360V130 CAVOK 16/M05 Q1009
14:50
V
15 °C 10 km+ - 160° 160° 4 kt METAR LIMA 211250Z 16004KT 090V250 CAVOK 15/M03 Q1010
13:50
V
14 °C 10 km+ - 160° 160° 4 kt METAR LIMA 211150Z 16004KT 110V240 CAVOK 14/M04 Q1011
12:50
V
15 °C 10 km+ - Var Var 5 kt METAR LIMA 211050Z VRB05KT CAVOK 15/M04 Q1011
11:50
V
14 °C 10 km+ - 160° 160° 7 kt METAR LIMA 210950Z 16007KT 100V250 CAVOK 14/M05 Q1012
10:50
V
13 °C 10 km+ - Var Var 4 kt METAR LIMA 210850Z VRB04KT CAVOK 13/M05 Q1013
09:50
V
12 °C 10 km+ - Var Var 2 kt METAR LIMA 210750Z VRB02KT CAVOK 12/M03 Q1013
08:50
V
10 °C 10 km+ - 200° 200° 4 kt METAR LIMA 210650Z 20004KT CAVOK 10/M02 Q1014
报告变更